sensor_id;sensor_type;location;lat;lon;timestamp;P1;durP1;ratioP1;P2;durP2;ratioP2
45007;SDS011;30743;52.008;5.644;2022-11-12T00:00:42;9.15;;;7.47;;
45007;SDS011;30743;52.008;5.644;2022-11-12T00:03:08;8.30;;;6.50;;
45007;SDS011;30743;52.008;5.644;2022-11-12T00:05:34;9.60;;;6.72;;
45007;SDS011;30743;52.008;5.644;2022-11-12T00:08:00;8.73;;;6.43;;
45007;SDS011;30743;52.008;5.644;2022-11-12T00:10:25;9.73;;;7.60;;
45007;SDS011;30743;52.008;5.644;2022-11-12T00:12:51;8.95;;;6.88;;
45007;SDS011;30743;52.008;5.644;2022-11-12T00:15:17;8.65;;;6.93;;
45007;SDS011;30743;52.008;5.644;2022-11-12T00:17:42;9.50;;;6.93;;
45007;SDS011;30743;52.008;5.644;2022-11-12T00:20:08;10.23;;;7.13;;
45007;SDS011;30743;52.008;5.644;2022-11-12T00:22:34;12.70;;;7.90;;
45007;SDS011;30743;52.008;5.644;2022-11-12T00:25:00;13.20;;;7.65;;
45007;SDS011;30743;52.008;5.644;2022-11-12T00:27:26;9.63;;;7.35;;
45007;SDS011;30743;52.008;5.644;2022-11-12T00:29:51;12.48;;;8.95;;
45007;SDS011;30743;52.008;5.644;2022-11-12T00:32:17;10.25;;;7.82;;
45007;SDS011;30743;52.008;5.644;2022-11-12T00:34:44;11.82;;;8.63;;
45007;SDS011;30743;52.008;5.644;2022-11-12T00:37:09;8.65;;;7.32;;
45007;SDS011;30743;52.008;5.644;2022-11-12T00:39:35;9.50;;;7.03;;
45007;SDS011;30743;52.008;5.644;2022-11-12T00:42:00;9.60;;;6.32;;
45007;SDS011;30743;52.008;5.644;2022-11-12T00:44:26;8.63;;;6.50;;
45007;SDS011;30743;52.008;5.644;2022-11-12T00:46:53;13.45;;;7.40;;
45007;SDS011;30743;52.008;5.644;2022-11-12T00:49:19;14.25;;;7.43;;
45007;SDS011;30743;52.008;5.644;2022-11-12T00:51:44;12.27;;;7.70;;
45007;SDS011;30743;52.008;5.644;2022-11-12T00:54:10;13.20;;;8.13;;
45007;SDS011;30743;52.008;5.644;2022-11-12T00:56:35;11.00;;;8.00;;
45007;SDS011;30743;52.008;5.644;2022-11-12T00:59:01;11.63;;;8.10;;
45007;SDS011;30743;52.008;5.644;2022-11-12T01:01:27;10.23;;;7.53;;
45007;SDS011;30743;52.008;5.644;2022-11-12T01:03:52;9.82;;;7.47;;
45007;SDS011;30743;52.008;5.644;2022-11-12T01:06:19;11.82;;;8.52;;
45007;SDS011;30743;52.008;5.644;2022-11-12T01:08:47;11.43;;;7.70;;
45007;SDS011;30743;52.008;5.644;2022-11-12T01:11:14;25.35;;;9.13;;
45007;SDS011;30743;52.008;5.644;2022-11-12T01:13:42;14.05;;;7.20;;
45007;SDS011;30743;52.008;5.644;2022-11-12T01:16:14;7.45;;;6.57;;
45007;SDS011;30743;52.008;5.644;2022-11-12T01:18:42;7.97;;;6.00;;
45007;SDS011;30743;52.008;5.644;2022-11-12T01:21:08;8.10;;;6.78;;
45007;SDS011;30743;52.008;5.644;2022-11-12T01:23:35;6.57;;;5.50;;
45007;SDS011;30743;52.008;5.644;2022-11-12T01:26:09;9.48;;;6.68;;
45007;SDS011;30743;52.008;5.644;2022-11-12T01:28:37;8.90;;;6.22;;
45007;SDS011;30743;52.008;5.644;2022-11-12T01:33:42;8.88;;;6.55;;
45007;SDS011;30743;52.008;5.644;2022-11-12T01:36:10;7.95;;;5.72;;
45007;SDS011;30743;52.008;5.644;2022-11-12T01:38:38;5.22;;;4.28;;
45007;SDS011;30743;52.008;5.644;2022-11-12T01:41:05;6.75;;;5.03;;
45007;SDS011;30743;52.008;5.644;2022-11-12T01:43:32;11.00;;;6.80;;
45007;SDS011;30743;52.008;5.644;2022-11-12T01:45:58;19.92;;;7.43;;
45007;SDS011;30743;52.008;5.644;2022-11-12T01:51:03;9.30;;;7.68;;
45007;SDS011;30743;52.008;5.644;2022-11-12T01:53:31;10.35;;;7.10;;
45007;SDS011;30743;52.008;5.644;2022-11-12T01:58:26;11.18;;;6.90;;
45007;SDS011;30743;52.008;5.644;2022-11-12T02:00:55;10.88;;;7.50;;
45007;SDS011;30743;52.008;5.644;2022-11-12T02:03:22;11.15;;;8.13;;
45007;SDS011;30743;52.008;5.644;2022-11-12T02:05:50;9.90;;;7.75;;
45007;SDS011;30743;52.008;5.644;2022-11-12T02:08:20;11.88;;;7.70;;
45007;SDS011;30743;52.008;5.644;2022-11-12T02:10:47;10.25;;;7.40;;
45007;SDS011;30743;52.008;5.644;2022-11-12T02:13:14;9.23;;;6.72;;
45007;SDS011;30743;52.008;5.644;2022-11-12T02:15:58;9.18;;;6.60;;
45007;SDS011;30743;52.008;5.644;2022-11-12T02:18:24;12.27;;;7.40;;
45007;SDS011;30743;52.008;5.644;2022-11-12T02:20:56;25.60;;;6.97;;
45007;SDS011;30743;52.008;5.644;2022-11-12T02:23:27;31.42;;;8.10;;
45007;SDS011;30743;52.008;5.644;2022-11-12T02:25:53;24.90;;;9.48;;
45007;SDS011;30743;52.008;5.644;2022-11-12T02:28:18;12.60;;;6.32;;
45007;SDS011;30743;52.008;5.644;2022-11-12T02:30:45;8.45;;;6.78;;
45007;SDS011;30743;52.008;5.644;2022-11-12T02:33:12;13.52;;;6.68;;
45007;SDS011;30743;52.008;5.644;2022-11-12T02:35:38;15.25;;;7.60;;
45007;SDS011;30743;52.008;5.644;2022-11-12T02:38:04;8.68;;;6.50;;
45007;SDS011;30743;52.008;5.644;2022-11-12T02:40:31;11.00;;;6.55;;
45007;SDS011;30743;52.008;5.644;2022-11-12T02:42:56;6.57;;;5.53;;
45007;SDS011;30743;52.008;5.644;2022-11-12T02:45:23;15.38;;;5.20;;
45007;SDS011;30743;52.008;5.644;2022-11-12T02:47:48;9.93;;;5.18;;
45007;SDS011;30743;52.008;5.644;2022-11-12T02:50:14;18.45;;;6.25;;
45007;SDS011;30743;52.008;5.644;2022-11-12T02:52:40;18.33;;;7.18;;
45007;SDS011;30743;52.008;5.644;2022-11-12T02:55:06;12.68;;;6.03;;
45007;SDS011;30743;52.008;5.644;2022-11-12T02:57:32;11.10;;;6.20;;
45007;SDS011;30743;52.008;5.644;2022-11-12T02:59:58;12.38;;;6.53;;
45007;SDS011;30743;52.008;5.644;2022-11-12T03:02:23;33.58;;;8.93;;
45007;SDS011;30743;52.008;5.644;2022-11-12T03:04:49;303.90;;;21.25;;
45007;SDS011;30743;52.008;5.644;2022-11-12T03:07:14;129.50;;;13.80;;
45007;SDS011;30743;52.008;5.644;2022-11-12T03:09:40;15.70;;;8.60;;
45007;SDS011;30743;52.008;5.644;2022-11-12T03:12:05;69.65;;;10.95;;
45007;SDS011;30743;52.008;5.644;2022-11-12T03:14:31;23.98;;;8.75;;
45007;SDS011;30743;52.008;5.644;2022-11-12T03:16:56;13.57;;;8.63;;
45007;SDS011;30743;52.008;5.644;2022-11-12T03:19:22;14.27;;;7.53;;
45007;SDS011;30743;52.008;5.644;2022-11-12T03:21:47;12.90;;;7.93;;
45007;SDS011;30743;52.008;5.644;2022-11-12T03:24:13;18.48;;;8.18;;
45007;SDS011;30743;52.008;5.644;2022-11-12T03:26:38;13.93;;;8.35;;
45007;SDS011;30743;52.008;5.644;2022-11-12T03:29:04;12.40;;;8.40;;
45007;SDS011;30743;52.008;5.644;2022-11-12T03:31:29;13.63;;;8.82;;
45007;SDS011;30743;52.008;5.644;2022-11-12T03:33:55;11.07;;;7.60;;
45007;SDS011;30743;52.008;5.644;2022-11-12T03:36:20;10.35;;;6.63;;
45007;SDS011;30743;52.008;5.644;2022-11-12T03:38:46;20.80;;;7.38;;
45007;SDS011;30743;52.008;5.644;2022-11-12T03:41:11;24.85;;;7.07;;
45007;SDS011;30743;52.008;5.644;2022-11-12T03:43:37;8.70;;;6.55;;
45007;SDS011;30743;52.008;5.644;2022-11-12T03:46:02;9.52;;;6.70;;
45007;SDS011;30743;52.008;5.644;2022-11-12T03:48:28;11.18;;;7.38;;
45007;SDS011;30743;52.008;5.644;2022-11-12T03:50:57;9.20;;;6.82;;
45007;SDS011;30743;52.008;5.644;2022-11-12T03:53:23;9.60;;;7.15;;
45007;SDS011;30743;52.008;5.644;2022-11-12T03:55:49;10.05;;;7.95;;
45007;SDS011;30743;52.008;5.644;2022-11-12T03:58:14;10.75;;;7.00;;
45007;SDS011;30743;52.008;5.644;2022-11-12T04:00:40;11.40;;;7.38;;
45007;SDS011;30743;52.008;5.644;2022-11-12T04:03:06;11.02;;;7.35;;
45007;SDS011;30743;52.008;5.644;2022-11-12T04:05:31;11.63;;;8.30;;
45007;SDS011;30743;52.008;5.644;2022-11-12T04:08:17;46.67;;;10.25;;
45007;SDS011;30743;52.008;5.644;2022-11-12T04:13:30;147.07;;;14.43;;
45007;SDS011;30743;52.008;5.644;2022-11-12T04:18:47;36.75;;;8.90;;
45007;SDS011;30743;52.008;5.644;2022-11-12T04:21:35;26.63;;;8.48;;
45007;SDS011;30743;52.008;5.644;2022-11-12T04:24:21;18.80;;;8.15;;
45007;SDS011;30743;52.008;5.644;2022-11-12T04:27:18;16.50;;;6.95;;
45007;SDS011;30743;52.008;5.644;2022-11-12T04:29:46;25.85;;;7.13;;
45007;SDS011;30743;52.008;5.644;2022-11-12T04:32:31;45.83;;;9.43;;
45007;SDS011;30743;52.008;5.644;2022-11-12T04:35:01;52.72;;;10.02;;
45007;SDS011;30743;52.008;5.644;2022-11-12T04:37:28;12.98;;;7.00;;
45007;SDS011;30743;52.008;5.644;2022-11-12T04:40:08;8.82;;;6.05;;
45007;SDS011;30743;52.008;5.644;2022-11-12T04:42:57;11.05;;;7.60;;
45007;SDS011;30743;52.008;5.644;2022-11-12T04:45:41;9.88;;;6.70;;
45007;SDS011;30743;52.008;5.644;2022-11-12T04:48:09;9.93;;;7.35;;
45007;SDS011;30743;52.008;5.644;2022-11-12T04:50:34;15.93;;;7.93;;
45007;SDS011;30743;52.008;5.644;2022-11-12T04:53:00;10.25;;;7.38;;
45007;SDS011;30743;52.008;5.644;2022-11-12T04:55:26;8.52;;;7.10;;
45007;SDS011;30743;52.008;5.644;2022-11-12T04:57:51;19.42;;;7.05;;
45007;SDS011;30743;52.008;5.644;2022-11-12T05:00:17;7.53;;;6.53;;
45007;SDS011;30743;52.008;5.644;2022-11-12T05:02:43;20.65;;;7.25;;
45007;SDS011;30743;52.008;5.644;2022-11-12T05:05:08;9.32;;;6.63;;
45007;SDS011;30743;52.008;5.644;2022-11-12T05:07:34;9.40;;;6.25;;
45007;SDS011;30743;52.008;5.644;2022-11-12T05:09:59;9.18;;;6.32;;
45007;SDS011;30743;52.008;5.644;2022-11-12T05:12:25;10.15;;;7.45;;
45007;SDS011;30743;52.008;5.644;2022-11-12T05:14:50;8.70;;;6.50;;
45007;SDS011;30743;52.008;5.644;2022-11-12T05:17:16;9.32;;;6.32;;
45007;SDS011;30743;52.008;5.644;2022-11-12T05:19:41;8.45;;;6.63;;
45007;SDS011;30743;52.008;5.644;2022-11-12T05:22:08;9.38;;;6.47;;
45007;SDS011;30743;52.008;5.644;2022-11-12T05:24:38;7.40;;;5.50;;
45007;SDS011;30743;52.008;5.644;2022-11-12T05:27:06;9.02;;;6.80;;
45007;SDS011;30743;52.008;5.644;2022-11-12T05:29:40;10.82;;;6.68;;
45007;SDS011;30743;52.008;5.644;2022-11-12T05:32:06;7.18;;;5.22;;
45007;SDS011;30743;52.008;5.644;2022-11-12T05:34:34;9.27;;;5.88;;
45007;SDS011;30743;52.008;5.644;2022-11-12T05:37:00;9.48;;;5.90;;
45007;SDS011;30743;52.008;5.644;2022-11-12T05:39:26;7.53;;;5.90;;
45007;SDS011;30743;52.008;5.644;2022-11-12T05:41:52;7.63;;;5.28;;
45007;SDS011;30743;52.008;5.644;2022-11-12T05:44:18;8.60;;;5.68;;
45007;SDS011;30743;52.008;5.644;2022-11-12T05:46:43;6.45;;;5.20;;
45007;SDS011;30743;52.008;5.644;2022-11-12T05:49:09;10.80;;;5.57;;
45007;SDS011;30743;52.008;5.644;2022-11-12T05:51:35;9.48;;;6.47;;
45007;SDS011;30743;52.008;5.644;2022-11-12T05:54:01;8.00;;;6.35;;
45007;SDS011;30743;52.008;5.644;2022-11-12T05:56:27;14.23;;;7.13;;
45007;SDS011;30743;52.008;5.644;2022-11-12T05:58:52;11.95;;;7.68;;
45007;SDS011;30743;52.008;5.644;2022-11-12T06:01:18;13.95;;;7.25;;
45007;SDS011;30743;52.008;5.644;2022-11-12T06:03:43;42.47;;;6.72;;
45007;SDS011;30743;52.008;5.644;2022-11-12T06:06:09;12.70;;;6.90;;
45007;SDS011;30743;52.008;5.644;2022-11-12T06:08:34;9.82;;;6.80;;
45007;SDS011;30743;52.008;5.644;2022-11-12T06:11:00;9.15;;;6.38;;
45007;SDS011;30743;52.008;5.644;2022-11-12T06:13:26;7.82;;;5.88;;
45007;SDS011;30743;52.008;5.644;2022-11-12T06:15:52;7.68;;;5.57;;
45007;SDS011;30743;52.008;5.644;2022-11-12T06:18:18;7.60;;;4.95;;
45007;SDS011;30743;52.008;5.644;2022-11-12T06:20:44;8.20;;;5.43;;
45007;SDS011;30743;52.008;5.644;2022-11-12T06:23:09;7.10;;;5.55;;
45007;SDS011;30743;52.008;5.644;2022-11-12T06:25:35;7.32;;;5.47;;
45007;SDS011;30743;52.008;5.644;2022-11-12T06:28:00;8.70;;;6.15;;
45007;SDS011;30743;52.008;5.644;2022-11-12T06:30:26;7.38;;;5.47;;
45007;SDS011;30743;52.008;5.644;2022-11-12T06:32:51;8.52;;;6.18;;
45007;SDS011;30743;52.008;5.644;2022-11-12T06:35:17;9.52;;;5.35;;
45007;SDS011;30743;52.008;5.644;2022-11-12T06:37:46;8.40;;;4.70;;
45007;SDS011;30743;52.008;5.644;2022-11-12T06:40:12;6.88;;;4.65;;
45007;SDS011;30743;52.008;5.644;2022-11-12T06:42:38;8.55;;;5.45;;
45007;SDS011;30743;52.008;5.644;2022-11-12T06:45:04;9.65;;;5.72;;
45007;SDS011;30743;52.008;5.644;2022-11-12T06:47:30;6.15;;;3.90;;
45007;SDS011;30743;52.008;5.644;2022-11-12T06:49:56;6.45;;;3.80;;
45007;SDS011;30743;52.008;5.644;2022-11-12T06:52:21;5.90;;;4.25;;
45007;SDS011;30743;52.008;5.644;2022-11-12T06:54:47;6.35;;;4.82;;
45007;SDS011;30743;52.008;5.644;2022-11-12T06:57:12;6.75;;;4.13;;
45007;SDS011;30743;52.008;5.644;2022-11-12T06:59:38;7.78;;;4.22;;
45007;SDS011;30743;52.008;5.644;2022-11-12T07:02:03;6.50;;;4.80;;
45007;SDS011;30743;52.008;5.644;2022-11-12T07:04:29;6.03;;;4.15;;
45007;SDS011;30743;52.008;5.644;2022-11-12T07:06:55;5.80;;;3.90;;
45007;SDS011;30743;52.008;5.644;2022-11-12T07:09:20;6.05;;;4.35;;
45007;SDS011;30743;52.008;5.644;2022-11-12T07:11:46;7.03;;;4.95;;
45007;SDS011;30743;52.008;5.644;2022-11-12T07:14:11;5.00;;;4.07;;
45007;SDS011;30743;52.008;5.644;2022-11-12T07:16:37;7.50;;;4.60;;
45007;SDS011;30743;52.008;5.644;2022-11-12T07:19:02;8.73;;;4.80;;
45007;SDS011;30743;52.008;5.644;2022-11-12T07:21:28;5.53;;;4.03;;
45007;SDS011;30743;52.008;5.644;2022-11-12T07:23:53;7.40;;;4.40;;
45007;SDS011;30743;52.008;5.644;2022-11-12T07:26:23;6.53;;;4.40;;
45007;SDS011;30743;52.008;5.644;2022-11-12T07:28:51;6.45;;;4.10;;
45007;SDS011;30743;52.008;5.644;2022-11-12T07:31:19;7.57;;;4.35;;
45007;SDS011;30743;52.008;5.644;2022-11-12T07:33:45;8.05;;;3.30;;
45007;SDS011;30743;52.008;5.644;2022-11-12T07:36:13;4.72;;;3.60;;
45007;SDS011;30743;52.008;5.644;2022-11-12T07:38:43;7.72;;;3.90;;
45007;SDS011;30743;52.008;5.644;2022-11-12T07:41:10;5.78;;;3.92;;
45007;SDS011;30743;52.008;5.644;2022-11-12T07:43:38;4.75;;;3.53;;
45007;SDS011;30743;52.008;5.644;2022-11-12T07:46:06;5.95;;;3.28;;
45007;SDS011;30743;52.008;5.644;2022-11-12T07:48:34;3.90;;;3.30;;
45007;SDS011;30743;52.008;5.644;2022-11-12T07:51:03;5.40;;;3.50;;
45007;SDS011;30743;52.008;5.644;2022-11-12T07:53:37;4.75;;;3.20;;
45007;SDS011;30743;52.008;5.644;2022-11-12T07:56:04;5.85;;;3.42;;
45007;SDS011;30743;52.008;5.644;2022-11-12T07:58:30;4.68;;;3.00;;
45007;SDS011;30743;52.008;5.644;2022-11-12T08:00:57;4.55;;;3.28;;
45007;SDS011;30743;52.008;5.644;2022-11-12T08:03:30;8.82;;;4.85;;
45007;SDS011;30743;52.008;5.644;2022-11-12T08:05:56;6.80;;;4.40;;
45007;SDS011;30743;52.008;5.644;2022-11-12T08:08:23;7.28;;;4.65;;
45007;SDS011;30743;52.008;5.644;2022-11-12T08:10:52;6.40;;;4.10;;
45007;SDS011;30743;52.008;5.644;2022-11-12T08:13:19;7.57;;;4.88;;
45007;SDS011;30743;52.008;5.644;2022-11-12T08:15:44;7.05;;;4.90;;
45007;SDS011;30743;52.008;5.644;2022-11-12T08:18:10;6.28;;;4.32;;
45007;SDS011;30743;52.008;5.644;2022-11-12T08:20:35;8.13;;;5.20;;
45007;SDS011;30743;52.008;5.644;2022-11-12T08:23:01;7.93;;;4.70;;
45007;SDS011;30743;52.008;5.644;2022-11-12T08:25:26;6.32;;;4.45;;
45007;SDS011;30743;52.008;5.644;2022-11-12T08:27:54;8.48;;;4.40;;
45007;SDS011;30743;52.008;5.644;2022-11-12T08:30:21;7.10;;;4.75;;
45007;SDS011;30743;52.008;5.644;2022-11-12T08:32:46;6.90;;;4.82;;
45007;SDS011;30743;52.008;5.644;2022-11-12T08:35:12;7.53;;;4.82;;
45007;SDS011;30743;52.008;5.644;2022-11-12T08:37:37;7.32;;;4.57;;
45007;SDS011;30743;52.008;5.644;2022-11-12T08:40:03;6.07;;;4.60;;
45007;SDS011;30743;52.008;5.644;2022-11-12T08:42:28;6.82;;;4.68;;
45007;SDS011;30743;52.008;5.644;2022-11-12T08:44:54;7.30;;;4.45;;
45007;SDS011;30743;52.008;5.644;2022-11-12T08:47:19;7.28;;;4.53;;
45007;SDS011;30743;52.008;5.644;2022-11-12T08:49:45;7.88;;;4.50;;
45007;SDS011;30743;52.008;5.644;2022-11-12T08:52:10;6.95;;;4.38;;
45007;SDS011;30743;52.008;5.644;2022-11-12T08:54:36;5.72;;;4.20;;
45007;SDS011;30743;52.008;5.644;2022-11-12T08:57:01;7.90;;;3.83;;
45007;SDS011;30743;52.008;5.644;2022-11-12T08:59:26;5.50;;;3.15;;
45007;SDS011;30743;52.008;5.644;2022-11-12T09:01:52;5.85;;;3.15;;
45007;SDS011;30743;52.008;5.644;2022-11-12T09:04:18;3.85;;;2.72;;
45007;SDS011;30743;52.008;5.644;2022-11-12T09:06:43;4.57;;;2.78;;
45007;SDS011;30743;52.008;5.644;2022-11-12T09:09:09;4.00;;;2.65;;
45007;SDS011;30743;52.008;5.644;2022-11-12T09:11:34;5.95;;;2.90;;
45007;SDS011;30743;52.008;5.644;2022-11-12T09:14:00;5.00;;;2.60;;
45007;SDS011;30743;52.008;5.644;2022-11-12T09:16:25;4.95;;;2.92;;
45007;SDS011;30743;52.008;5.644;2022-11-12T09:18:51;6.20;;;2.92;;
45007;SDS011;30743;52.008;5.644;2022-11-12T09:21:16;6.45;;;2.72;;
45007;SDS011;30743;52.008;5.644;2022-11-12T09:23:43;5.70;;;3.08;;
45007;SDS011;30743;52.008;5.644;2022-11-12T09:26:08;5.00;;;3.25;;
45007;SDS011;30743;52.008;5.644;2022-11-12T09:28:34;4.55;;;3.17;;
45007;SDS011;30743;52.008;5.644;2022-11-12T09:31:00;4.28;;;3.08;;
45007;SDS011;30743;52.008;5.644;2022-11-12T09:33:28;4.13;;;3.00;;
45007;SDS011;30743;52.008;5.644;2022-11-12T09:38:20;5.03;;;2.92;;
45007;SDS011;30743;52.008;5.644;2022-11-12T09:46:14;4.93;;;2.67;;
45007;SDS011;30743;52.008;5.644;2022-11-12T09:48:45;3.90;;;3.00;;
45007;SDS011;30743;52.008;5.644;2022-11-12T09:51:18;3.88;;;2.72;;
45007;SDS011;30743;52.008;5.644;2022-11-12T09:53:56;3.90;;;2.53;;
45007;SDS011;30743;52.008;5.644;2022-11-12T09:56:23;3.22;;;2.20;;
45007;SDS011;30743;52.008;5.644;2022-11-12T09:58:50;3.85;;;2.33;;
45007;SDS011;30743;52.008;5.644;2022-11-12T10:09:49;5.53;;;2.63;;
45007;SDS011;30743;52.008;5.644;2022-11-12T10:17:53;3.38;;;2.38;;
45007;SDS011;30743;52.008;5.644;2022-11-12T10:20:36;3.67;;;2.60;;
45007;SDS011;30743;52.008;5.644;2022-11-12T10:23:28;2.78;;;2.28;;
45007;SDS011;30743;52.008;5.644;2022-11-12T10:26:08;2.97;;;2.47;;
45007;SDS011;30743;52.008;5.644;2022-11-12T10:28:38;5.93;;;2.72;;
45007;SDS011;30743;52.008;5.644;2022-11-12T10:31:13;3.50;;;2.40;;
45007;SDS011;30743;52.008;5.644;2022-11-12T10:33:43;3.50;;;2.53;;
45007;SDS011;30743;52.008;5.644;2022-11-12T10:36:20;3.78;;;2.60;;
45007;SDS011;30743;52.008;5.644;2022-11-12T10:38:53;3.28;;;2.58;;
45007;SDS011;30743;52.008;5.644;2022-11-12T10:41:27;3.22;;;2.60;;
45007;SDS011;30743;52.008;5.644;2022-11-12T10:44:00;9.50;;;2.80;;
45007;SDS011;30743;52.008;5.644;2022-11-12T10:46:28;3.60;;;2.78;;
45007;SDS011;30743;52.008;5.644;2022-11-12T10:49:02;4.15;;;2.90;;
45007;SDS011;30743;52.008;5.644;2022-11-12T10:51:36;3.33;;;2.88;;
45007;SDS011;30743;52.008;5.644;2022-11-12T10:54:26;3.40;;;2.42;;
45007;SDS011;30743;52.008;5.644;2022-11-12T10:59:16;3.83;;;2.38;;
45007;SDS011;30743;52.008;5.644;2022-11-12T11:01:46;5.18;;;2.75;;
45007;SDS011;30743;52.008;5.644;2022-11-12T11:04:31;3.75;;;2.75;;
45007;SDS011;30743;52.008;5.644;2022-11-12T11:06:59;4.22;;;2.80;;
45007;SDS011;30743;52.008;5.644;2022-11-12T11:09:30;3.15;;;2.63;;
45007;SDS011;30743;52.008;5.644;2022-11-12T11:11:56;3.40;;;2.67;;
45007;SDS011;30743;52.008;5.644;2022-11-12T11:16:50;3.83;;;2.92;;
45007;SDS011;30743;52.008;5.644;2022-11-12T11:19:17;3.85;;;2.30;;
45007;SDS011;30743;52.008;5.644;2022-11-12T11:26:43;3.20;;;2.10;;
45007;SDS011;30743;52.008;5.644;2022-11-12T11:32:08;3.88;;;2.55;;
45007;SDS011;30743;52.008;5.644;2022-11-12T11:34:48;4.22;;;2.90;;
45007;SDS011;30743;52.008;5.644;2022-11-12T11:37:29;3.22;;;2.50;;
45007;SDS011;30743;52.008;5.644;2022-11-12T11:40:03;4.68;;;2.63;;
45007;SDS011;30743;52.008;5.644;2022-11-12T11:45:17;2.65;;;2.40;;
45007;SDS011;30743;52.008;5.644;2022-11-12T11:48:07;5.72;;;2.85;;
45007;SDS011;30743;52.008;5.644;2022-11-12T11:50:41;4.13;;;3.08;;
45007;SDS011;30743;52.008;5.644;2022-11-12T11:53:21;4.30;;;2.70;;
45007;SDS011;30743;52.008;5.644;2022-11-12T11:55:59;3.10;;;2.72;;
45007;SDS011;30743;52.008;5.644;2022-11-12T11:58:34;3.80;;;2.70;;
45007;SDS011;30743;52.008;5.644;2022-11-12T12:01:25;3.13;;;2.28;;
45007;SDS011;30743;52.008;5.644;2022-11-12T12:10:02;4.13;;;2.45;;
45007;SDS011;30743;52.008;5.644;2022-11-12T12:13:08;2.70;;;2.50;;
45007;SDS011;30743;52.008;5.644;2022-11-12T12:21:11;3.80;;;2.90;;
45007;SDS011;30743;52.008;5.644;2022-11-12T12:26:13;3.88;;;3.08;;
45007;SDS011;30743;52.008;5.644;2022-11-12T12:31:15;7.07;;;2.72;;
45007;SDS011;30743;52.008;5.644;2022-11-12T12:33:50;8.25;;;2.90;;
45007;SDS011;30743;52.008;5.644;2022-11-12T12:36:26;6.72;;;2.65;;
45007;SDS011;30743;52.008;5.644;2022-11-12T12:39:17;9.02;;;2.60;;
45007;SDS011;30743;52.008;5.644;2022-11-12T12:41:51;7.65;;;2.67;;
45007;SDS011;30743;52.008;5.644;2022-11-12T12:44:21;3.88;;;2.10;;
45007;SDS011;30743;52.008;5.644;2022-11-12T12:47:08;3.35;;;2.60;;
45007;SDS011;30743;52.008;5.644;2022-11-12T12:49:37;3.63;;;2.53;;
45007;SDS011;30743;52.008;5.644;2022-11-12T12:52:04;4.75;;;2.60;;
45007;SDS011;30743;52.008;5.644;2022-11-12T12:57:04;5.15;;;2.80;;
45007;SDS011;30743;52.008;5.644;2022-11-12T13:03:03;3.70;;;2.08;;
45007;SDS011;30743;52.008;5.644;2022-11-12T13:05:35;5.13;;;2.55;;
45007;SDS011;30743;52.008;5.644;2022-11-12T13:08:18;3.47;;;2.78;;
45007;SDS011;30743;52.008;5.644;2022-11-12T13:10:47;2.70;;;2.40;;
45007;SDS011;30743;52.008;5.644;2022-11-12T13:15:49;5.93;;;2.67;;
45007;SDS011;30743;52.008;5.644;2022-11-12T13:23:47;3.10;;;2.25;;
45007;SDS011;30743;52.008;5.644;2022-11-12T13:26:42;2.97;;;2.10;;
45007;SDS011;30743;52.008;5.644;2022-11-12T13:29:22;6.30;;;2.35;;
45007;SDS011;30743;52.008;5.644;2022-11-12T13:32:02;2.95;;;1.80;;
45007;SDS011;30743;52.008;5.644;2022-11-12T13:34:49;2.28;;;2.00;;
45007;SDS011;30743;52.008;5.644;2022-11-12T13:37:18;2.60;;;1.85;;
45007;SDS011;30743;52.008;5.644;2022-11-12T13:39:46;2.65;;;1.90;;
45007;SDS011;30743;52.008;5.644;2022-11-12T13:42:15;4.47;;;2.30;;
45007;SDS011;30743;52.008;5.644;2022-11-12T13:45:00;4.32;;;1.98;;
45007;SDS011;30743;52.008;5.644;2022-11-12T13:47:26;5.30;;;1.70;;
45007;SDS011;30743;52.008;5.644;2022-11-12T13:49:53;2.58;;;1.80;;
45007;SDS011;30743;52.008;5.644;2022-11-12T13:52:24;3.97;;;2.00;;
45007;SDS011;30743;52.008;5.644;2022-11-12T13:55:00;3.47;;;2.20;;
45007;SDS011;30743;52.008;5.644;2022-11-12T13:57:31;3.35;;;2.30;;
45007;SDS011;30743;52.008;5.644;2022-11-12T14:00:18;2.20;;;1.58;;
45007;SDS011;30743;52.008;5.644;2022-11-12T14:03:05;3.13;;;1.90;;
45007;SDS011;30743;52.008;5.644;2022-11-12T14:05:32;3.40;;;1.60;;
45007;SDS011;30743;52.008;5.644;2022-11-12T14:08:12;2.85;;;2.00;;
45007;SDS011;30743;52.008;5.644;2022-11-12T14:13:51;5.00;;;2.63;;
45007;SDS011;30743;52.008;5.644;2022-11-12T14:21:37;3.30;;;2.88;;
45007;SDS011;30743;52.008;5.644;2022-11-12T14:24:03;2.75;;;2.33;;
45007;SDS011;30743;52.008;5.644;2022-11-12T14:26:38;5.38;;;2.78;;
45007;SDS011;30743;52.008;5.644;2022-11-12T14:29:06;6.15;;;3.22;;
45007;SDS011;30743;52.008;5.644;2022-11-12T14:31:38;4.65;;;2.42;;
45007;SDS011;30743;52.008;5.644;2022-11-12T14:34:19;3.83;;;2.47;;
45007;SDS011;30743;52.008;5.644;2022-11-12T14:36:46;4.15;;;2.70;;
45007;SDS011;30743;52.008;5.644;2022-11-12T14:39:13;4.55;;;2.90;;
45007;SDS011;30743;52.008;5.644;2022-11-12T14:41:39;3.83;;;2.95;;
45007;SDS011;30743;52.008;5.644;2022-11-12T14:44:09;3.72;;;2.72;;
45007;SDS011;30743;52.008;5.644;2022-11-12T14:46:47;5.03;;;2.85;;
45007;SDS011;30743;52.008;5.644;2022-11-12T14:49:29;5.63;;;2.92;;
45007;SDS011;30743;52.008;5.644;2022-11-12T14:52:20;5.35;;;3.10;;
45007;SDS011;30743;52.008;5.644;2022-11-12T14:54:52;5.50;;;3.10;;
45007;SDS011;30743;52.008;5.644;2022-11-12T14:57:22;3.90;;;2.90;;
45007;SDS011;30743;52.008;5.644;2022-11-12T14:59:51;3.95;;;3.15;;
45007;SDS011;30743;52.008;5.644;2022-11-12T15:02:23;4.68;;;3.25;;
45007;SDS011;30743;52.008;5.644;2022-11-12T15:04:57;5.68;;;2.92;;
45007;SDS011;30743;52.008;5.644;2022-11-12T15:13:01;5.85;;;3.50;;
45007;SDS011;30743;52.008;5.644;2022-11-12T15:15:52;4.60;;;3.03;;
45007;SDS011;30743;52.008;5.644;2022-11-12T15:18:21;4.68;;;2.97;;
45007;SDS011;30743;52.008;5.644;2022-11-12T15:23:50;4.47;;;3.33;;
45007;SDS011;30743;52.008;5.644;2022-11-12T15:26:44;4.03;;;3.00;;
45007;SDS011;30743;52.008;5.644;2022-11-12T15:32:02;4.63;;;2.90;;
45007;SDS011;30743;52.008;5.644;2022-11-12T15:39:50;7.05;;;3.40;;
45007;SDS011;30743;52.008;5.644;2022-11-12T15:42:36;5.85;;;3.65;;
45007;SDS011;30743;52.008;5.644;2022-11-12T15:45:24;5.20;;;3.10;;
45007;SDS011;30743;52.008;5.644;2022-11-12T15:47:49;5.63;;;3.13;;
45007;SDS011;30743;52.008;5.644;2022-11-12T15:50:16;4.72;;;3.25;;
45007;SDS011;30743;52.008;5.644;2022-11-12T15:52:43;6.03;;;3.20;;
45007;SDS011;30743;52.008;5.644;2022-11-12T15:55:13;5.35;;;3.53;;
45007;SDS011;30743;52.008;5.644;2022-11-12T16:02:41;4.40;;;3.03;;
45007;SDS011;30743;52.008;5.644;2022-11-12T16:05:11;7.20;;;3.75;;
45007;SDS011;30743;52.008;5.644;2022-11-12T16:07:38;7.03;;;4.13;;
45007;SDS011;30743;52.008;5.644;2022-11-12T16:10:03;8.80;;;4.10;;
45007;SDS011;30743;52.008;5.644;2022-11-12T16:12:29;7.53;;;4.65;;
45007;SDS011;30743;52.008;5.644;2022-11-12T16:14:54;9.80;;;4.47;;
45007;SDS011;30743;52.008;5.644;2022-11-12T16:17:20;9.48;;;4.53;;
45007;SDS011;30743;52.008;5.644;2022-11-12T16:19:46;5.57;;;3.97;;
45007;SDS011;30743;52.008;5.644;2022-11-12T16:22:11;6.63;;;4.03;;
45007;SDS011;30743;52.008;5.644;2022-11-12T16:24:38;5.88;;;3.90;;
45007;SDS011;30743;52.008;5.644;2022-11-12T16:27:04;6.55;;;4.35;;
45007;SDS011;30743;52.008;5.644;2022-11-12T16:29:33;6.65;;;4.07;;
45007;SDS011;30743;52.008;5.644;2022-11-12T16:31:59;6.32;;;4.32;;
45007;SDS011;30743;52.008;5.644;2022-11-12T16:34:24;5.07;;;4.13;;
45007;SDS011;30743;52.008;5.644;2022-11-12T16:36:50;9.60;;;4.00;;
45007;SDS011;30743;52.008;5.644;2022-11-12T16:39:15;6.78;;;4.55;;
45007;SDS011;30743;52.008;5.644;2022-11-12T16:41:41;6.75;;;4.30;;
45007;SDS011;30743;52.008;5.644;2022-11-12T16:44:06;8.10;;;4.35;;
45007;SDS011;30743;52.008;5.644;2022-11-12T16:46:35;6.25;;;4.13;;